Time;durP1;ratioP1;P1;durP2;ratioP2;P2;SDS_P1;SDS_P2;PMS_P1;PMS_P2;Temp;Humidity;BMP_temperature;BMP_pressure;BME280_temperature;BME280_humidity;BME280_pressure;Samples;Min_cycle;Max_cycle;Signal;HPM_P1;HPM_P2
2022/05/24 00:02:06;;;;;;;35.78;31.42;;;;;;;15.85;84.87;100157.34;5031764;28;20030;-78
2022/05/24 00:04:32;;;;;;;36.33;30.38;;;;;;;15.80;85.03;100157.34;5017990;28;20041;-77
2022/05/24 00:06:58;;;;;;;36.30;31.35;;;;;;;15.80;85.05;100155.63;5018518;28;20068;-77
2022/05/24 00:09:25;;;;;;;34.78;29.25;;;;;;;15.81;84.74;100157.34;5021021;28;20055;-77
2022/05/24 00:11:51;;;;;;;35.20;28.30;;;;;;;15.73;84.76;100155.66;5018930;28;20052;-77
2022/05/24 00:15:19;;;;;;;37.33;27.45;;;;;;;15.80;84.46;100149.59;5022745;28;20025;-77
2022/05/24 00:17:02;;;;;;;30.30;26.77;;;;;;;15.74;84.00;100147.88;5020793;28;20514;-77
2022/05/24 00:19:27;;;;;;;27.73;23.60;;;;;;;15.72;83.55;100141.84;5020675;28;20029;-77
2022/05/24 00:21:53;;;;;;;27.20;21.90;;;;;;;15.61;83.72;100143.59;5018399;28;20041;-77
2022/05/24 00:24:18;;;;;;;27.00;21.77;;;;;;;15.63;83.72;100144.47;4989867;28;20036;-77
2022/05/24 00:26:43;;;;;;;25.88;20.00;;;;;;;15.63;83.29;100135.84;5015542;28;20056;-77
2022/05/24 00:29:09;;;;;;;26.13;19.70;;;;;;;15.57;83.51;100139.28;5017760;28;20045;-77
2022/05/24 00:31:34;;;;;;;24.25;18.55;;;;;;;15.58;83.10;100146.19;5015465;28;20032;-77
2022/05/24 00:34:00;;;;;;;23.60;17.92;;;;;;;15.53;83.22;100148.81;5020627;28;20040;-77
2022/05/24 00:36:25;;;;;;;19.83;16.10;;;;;;;15.50;82.50;100141.03;5018415;28;20025;-77
2022/05/24 00:38:50;;;;;;;21.95;16.55;;;;;;;15.44;82.22;100138.47;5018903;28;22024;-77
2022/05/24 00:41:30;;;;;;;20.60;14.45;;;;;;;15.56;81.87;100141.00;5015084;28;20124;-77
2022/05/24 00:44:08;;;;;;;17.98;13.82;;;;;;;15.52;82.32;100141.88;5016352;28;20741;-77
2022/05/24 00:46:45;;;;;;;21.20;14.50;;;;;;;15.49;82.55;100136.72;5017236;28;20021;-77
2022/05/24 00:49:15;;;;;;;22.00;13.82;;;;;;;15.44;81.93;100140.19;5017687;28;20071;-77
2022/05/24 00:51:47;;;;;;;20.42;13.05;;;;;;;15.47;81.69;100145.34;5015306;28;20590;-78
2022/05/24 00:54:12;;;;;;;18.38;12.77;;;;;;;15.36;82.04;100139.38;5016982;28;20030;-77
2022/05/24 00:57:06;;;;;;;19.23;13.10;;;;;;;15.43;82.03;100148.84;5016747;28;20037;-77
2022/05/24 00:59:42;;;;;;;18.70;11.80;;;;;;;15.34;81.88;100144.53;5017273;28;20029;-77
2022/05/24 01:02:07;;;;;;;18.00;12.00;;;;;;;15.25;81.98;100150.59;5018938;28;20029;-77
2022/05/24 01:04:33;;;;;;;19.77;12.00;;;;;;;15.23;81.76;100142.00;5014863;28;20029;-78
2022/05/24 01:06:58;;;;;;;16.63;11.07;;;;;;;15.22;81.79;100140.25;5018745;28;20041;-77
2022/05/24 01:09:38;;;;;;;14.63;10.20;;;;;;;15.21;81.36;100132.47;5008907;28;20511;-77
2022/05/24 01:12:13;;;;;;;14.93;9.55;;;;;;;15.22;81.28;100135.06;5018084;28;20030;-77
2022/05/24 01:14:39;;;;;;;15.02;9.32;;;;;;;15.15;80.73;100135.94;5018276;28;20057;-77
2022/05/24 01:17:06;;;;;;;15.70;10.02;;;;;;;15.06;80.96;100142.88;5011037;28;20038;-77
2022/05/24 01:19:41;;;;;;;15.20;8.85;;;;;;;15.05;81.09;100130.81;5017005;28;20025;-77
2022/05/24 01:22:33;;;;;;;17.88;9.63;;;;;;;15.03;81.09;100131.66;5019841;28;20046;-77
2022/05/24 01:25:03;;;;;;;15.25;8.90;;;;;;;14.97;80.92;100142.00;5018279;28;20034;-77
2022/05/24 01:27:28;;;;;;;13.70;8.32;;;;;;;14.99;80.37;100124.78;5016095;28;20029;-77
2022/05/24 01:29:53;;;;;;;15.13;8.38;;;;;;;14.96;80.57;100124.75;5017504;28;20026;-77
2022/05/24 01:37:48;;;;;;;13.57;8.07;;;;;;;14.84;80.06;100152.38;5007303;28;20084;-77
2022/05/24 01:40:13;;;;;;;12.02;7.30;;;;;;;14.86;80.29;100161.00;5016762;28;20116;-78
2022/05/24 01:42:39;;;;;;;17.00;7.35;;;;;;;14.83;79.61;100155.84;5013833;28;20067;-78
2022/05/24 01:45:14;;;;;;;12.35;6.57;;;;;;;14.82;79.30;100159.31;5016234;28;20033;-78
2022/05/24 01:47:43;;;;;;;14.25;7.00;;;;;;;14.77;80.02;100161.88;5018077;28;20036;-77
2022/05/24 01:50:21;;;;;;;9.27;6.45;;;;;;;14.82;79.02;100155.00;5012355;28;20033;-78
2022/05/24 01:52:54;;;;;;;12.88;6.55;;;;;;;14.74;79.04;100155.00;5017428;28;20033;-78
2022/05/24 01:55:25;;;;;;;11.68;6.55;;;;;;;14.75;79.29;100158.44;5012842;28;20029;-78
2022/05/24 01:57:54;;;;;;;13.77;6.28;;;;;;;14.68;78.99;100157.59;5016932;28;20625;-78
2022/05/24 02:00:20;;;;;;;11.68;6.03;;;;;;;14.65;79.76;100149.81;5018469;28;20025;-78
2022/05/24 02:02:47;;;;;;;9.30;5.38;;;;;;;14.70;78.52;100149.81;5019566;28;20040;-77
2022/05/24 02:05:14;;;;;;;10.23;5.13;;;;;;;14.63;78.77;100148.09;5015690;28;20045;-77
2022/05/24 02:07:40;;;;;;;10.57;4.78;;;;;;;14.65;78.32;100138.59;5015286;28;20112;-77
2022/05/24 02:10:06;;;;;;;13.07;4.75;;;;;;;14.57;78.06;100140.34;5013503;28;20044;-77
2022/05/24 02:12:43;;;;;;;12.10;4.72;;;;;;;14.55;79.26;100139.44;5015889;28;20499;-77
2022/05/24 02:15:10;;;;;;;10.57;4.57;;;;;;;14.55;78.38;100145.47;5014579;28;20021;-77
2022/05/24 02:17:39;;;;;;;9.13;4.07;;;;;;;14.51;78.42;100143.78;5017588;28;20546;-77
2022/05/24 02:20:05;;;;;;;;;;;;;;;14.75;77.73;100154.13;5016452;28;20084;-78
2022/05/24 02:22:31;;;;;;;10.00;4.05;;;;;;;14.55;78.20;100160.16;5022344;28;19925;-78
2022/05/24 02:25:10;;;;;;;10.15;4.22;;;;;;;14.53;78.30;100152.38;5016350;28;20473;-78
2022/05/24 02:27:45;;;;;;;10.07;3.70;;;;;;;14.54;77.96;100166.19;5015765;28;20140;-77
2022/05/24 02:30:21;;;;;;;8.27;3.88;;;;;;;14.49;77.95;100159.28;5014653;28;20087;-78
2022/05/24 02:32:47;;;;;;;7.57;3.70;;;;;;;14.43;77.96;100161.81;5014885;28;20532;-78
2022/05/24 02:35:13;;;;;;;8.32;3.45;;;;;;;14.34;78.25;100151.47;5019637;28;20026;-78
2022/05/24 02:37:39;;;;;;;9.95;3.20;;;;;;;14.36;78.11;100144.56;5014870;28;20045;-78
2022/05/24 02:42:50;;;;;;;11.23;3.70;;;;;;;14.33;78.17;100154.94;5010606;28;20076;-78
2022/05/24 02:45:16;;;;;;;12.30;3.45;;;;;;;14.36;77.43;100152.34;5017442;28;20376;-78
2022/05/24 02:47:41;;;;;;;8.10;2.83;;;;;;;14.27;78.09;100154.94;5017731;28;20041;-78
2022/05/24 02:50:11;;;;;;;7.25;2.70;;;;;;;14.31;77.18;100153.19;4998491;28;20033;-78
2022/05/24 02:52:37;;;;;;;10.00;2.60;;;;;;;14.29;77.05;100154.91;5012209;28;20061;-79
2022/05/24 02:55:05;;;;;;;9.32;2.65;;;;;;;14.21;77.05;100153.19;5015673;28;20037;-78
2022/05/24 02:57:30;;;;;;;10.07;2.80;;;;;;;14.20;77.17;100158.38;5020031;28;20519;-79
2022/05/24 02:59:56;;;;;;;8.23;2.55;;;;;;;14.22;77.66;100166.97;5017732;28;20040;-78
2022/05/24 03:02:21;;;;;;;10.77;2.70;;;;;;;14.26;77.33;100165.25;5013276;28;20037;-79
2022/05/24 03:04:46;;;;;;;10.05;2.72;;;;;;;14.23;77.18;100153.19;5018130;28;20395;-78
2022/05/24 03:09:56;;;;;;;6.68;2.40;;;;;;;14.24;77.94;100144.56;5018845;28;20458;-78
2022/05/24 03:15:06;;;;;;;12.15;2.90;;;;;;;14.21;76.72;100160.09;5019937;28;20583;-79
2022/05/24 03:17:31;;;;;;;6.72;2.50;;;;;;;14.14;78.02;100171.28;5017305;28;20037;-79
2022/05/24 03:19:57;;;;;;;11.20;2.80;;;;;;;14.17;77.48;100163.50;5021870;28;20479;-79
2022/05/24 03:22:23;;;;;;;8.65;2.50;;;;;;;14.16;77.59;100157.47;5020658;28;20098;-78
2022/05/24 03:24:48;;;;;;;8.57;2.33;;;;;;;14.19;77.43;100157.47;5025216;28;20122;-78
2022/05/24 03:27:14;;;;;;;6.93;2.42;;;;;;;14.16;77.19;100154.91;5018359;28;20582;-78
2022/05/24 03:29:41;;;;;;;9.63;2.50;;;;;;;14.16;77.75;100161.78;5020997;28;20056;-78
2022/05/24 03:32:08;;;;;;;7.88;2.22;;;;;;;14.14;78.44;100169.56;5016899;28;20483;-78
2022/05/24 03:34:34;;;;;;;8.13;2.95;;;;;;;14.14;77.90;100169.56;5024712;28;20021;-77
2022/05/24 03:37:00;;;;;;;9.77;2.38;;;;;;;14.12;77.31;100178.16;5018976;28;20037;-77
2022/05/24 03:39:25;;;;;;;7.32;2.60;;;;;;;13.99;77.90;100155.72;5015547;28;20052;-77
2022/05/24 03:41:51;;;;;;;8.80;2.67;;;;;;;14.08;78.12;100173.84;5018073;28;20029;-78
2022/05/24 03:44:16;;;;;;;12.30;3.22;;;;;;;14.06;78.65;100170.38;5017172;28;20034;-78
2022/05/24 03:46:42;;;;;;;9.68;3.10;;;;;;;14.07;78.43;100174.69;5019428;28;20408;-77
2022/05/24 03:49:08;;;;;;;11.63;2.90;;;;;;;14.05;78.51;100169.50;5019935;28;20025;-77
2022/05/24 03:51:36;;;;;;;9.07;2.83;;;;;;;14.08;80.03;100161.78;5022846;28;20033;-77
2022/05/24 03:54:02;;;;;;;11.88;3.47;;;;;;;14.10;79.37;100167.81;5016031;28;20026;-78
2022/05/24 03:56:27;;;;;;;11.52;3.58;;;;;;;14.05;78.81;100176.41;5017098;28;20040;-78
2022/05/24 03:58:53;;;;;;;6.82;3.25;;;;;;;14.09;78.32;100181.59;5018381;28;20029;-78
2022/05/24 04:01:18;;;;;;;10.27;3.45;;;;;;;14.09;78.53;100201.41;5003275;28;20061;-77
2022/05/24 04:03:44;;;;;;;10.68;3.55;;;;;;;14.11;79.16;100208.31;5013982;28;20048;-77
2022/05/24 04:06:10;;;;;;;9.77;4.05;;;;;;;14.10;79.43;100205.72;5009709;28;20030;-77
2022/05/24 04:08:35;;;;;;;11.45;4.25;;;;;;;14.13;78.98;100198.81;5021964;28;20129;-77
2022/05/24 04:11:09;;;;;;;7.97;4.03;;;;;;;14.15;78.91;100229.88;5020786;28;20124;-77
2022/05/24 04:13:37;;;;;;;11.50;4.65;;;;;;;14.06;78.36;100222.06;5021163;28;20072;-77
2022/05/24 04:16:03;;;;;;;10.52;4.43;;;;;;;14.06;78.54;100220.34;5019564;28;20026;-77
2022/05/24 04:18:28;;;;;;;14.70;4.68;;;;;;;14.04;78.53;100229.84;5017513;28;20071;-78
2022/05/24 04:20:54;;;;;;;9.63;4.60;;;;;;;14.05;79.00;100233.28;5013497;28;20034;-77
2022/05/24 04:23:21;;;;;;;12.57;4.60;;;;;;;14.03;78.61;100224.66;5018849;28;20044;-78
2022/05/24 04:25:47;;;;;;;9.40;4.18;;;;;;;14.04;79.51;100219.50;5015435;28;20045;-77
2022/05/24 04:28:14;;;;;;;9.75;4.60;;;;;;;13.99;78.79;100202.25;5019688;28;20041;-77
2022/05/24 04:30:39;;;;;;;11.60;4.55;;;;;;;13.99;78.91;100187.59;5017390;28;20041;-77
2022/05/24 04:33:05;;;;;;;10.85;4.63;;;;;;;13.96;78.34;100190.19;5019101;28;21406;-77
2022/05/24 04:35:30;;;;;;;9.30;4.43;;;;;;;14.00;79.52;100196.22;5016657;28;20026;-77
2022/05/24 04:37:58;;;;;;;10.10;4.65;;;;;;;14.00;79.32;100198.78;5019743;28;20108;-77
2022/05/24 04:42:18;;;;;;;9.23;4.30;;;;;;;14.04;78.77;100213.47;5017072;28;20056;-77
2022/05/24 04:43:09;;;;;;;9.85;4.60;;;;;;;14.04;78.32;100244.47;5017046;28;20038;-77
2022/05/24 04:45:34;;;;;;;14.65;5.00;;;;;;;13.97;79.11;100250.50;5015870;28;20060;-77
2022/05/24 04:48:00;;;;;;;12.00;4.50;;;;;;;13.99;78.61;100241.00;5016103;28;20497;-78
2022/05/24 04:50:25;;;;;;;16.27;4.95;;;;;;;13.98;78.30;100228.94;5002829;28;20048;-78
2022/05/24 04:52:50;;;;;;;10.30;4.70;;;;;;;13.92;78.93;100225.47;5013184;28;20376;-77
2022/05/24 04:55:16;;;;;;;12.48;4.30;;;;;;;13.92;78.72;100230.66;5012918;28;20076;-77
2022/05/24 04:57:43;;;;;;;10.18;4.55;;;;;;;13.91;78.70;100239.25;5010752;28;20044;-77
2022/05/24 05:00:14;;;;;;;8.75;4.13;;;;;;;13.97;78.66;100247.91;5026833;28;20696;-77
2022/05/24 05:02:40;;;;;;;9.88;3.83;;;;;;;13.91;79.73;100253.91;5014557;28;21911;-77
2022/05/24 05:05:06;;;;;;;9.35;4.07;;;;;;;13.92;78.62;100263.38;5017094;28;20374;-77
2022/05/24 05:07:32;;;;;;;8.43;3.35;;;;;;;13.86;79.30;100274.56;5017423;28;20034;-78
2022/05/24 05:09:58;;;;;;;7.20;3.47;;;;;;;13.89;78.41;100276.28;5015909;28;20661;-77
2022/05/24 05:12:26;;;;;;;13.35;4.10;;;;;;;13.92;78.79;100279.75;5015489;28;20754;-77
2022/05/24 05:14:52;;;;;;;8.18;3.20;;;;;;;13.85;79.88;100280.59;5019126;28;20030;-76
2022/05/24 05:17:18;;;;;;;10.73;4.13;;;;;;;13.92;79.04;100284.06;5015665;28;20030;-77
2022/05/24 05:19:45;;;;;;;10.95;3.35;;;;;;;13.89;78.25;100284.03;5021572;28;20086;-77
2022/05/24 05:22:11;;;;;;;10.90;3.45;;;;;;;13.88;78.48;100297.81;5019501;28;20032;-76
2022/05/24 05:24:36;;;;;;;10.32;3.50;;;;;;;13.89;78.79;100304.69;5023716;28;20030;-77
2022/05/24 05:27:03;;;;;;;6.95;2.78;;;;;;;13.89;79.11;100292.69;5023634;28;20028;-77
2022/05/24 05:32:26;;;;;;;9.45;2.70;;;;;;;13.94;78.91;100272.00;5024491;28;20171;-77
2022/05/24 05:35:07;;;;;;;7.32;2.67;;;;;;;13.96;78.72;100288.41;5019050;28;20026;-76
2022/05/24 05:37:33;;;;;;;10.57;2.78;;;;;;;13.92;78.37;100295.25;5018719;28;20452;-76
2022/05/24 05:40:04;;;;;;;10.20;2.92;;;;;;;13.87;78.95;100288.34;5020801;28;20523;-76
2022/05/24 05:42:29;;;;;;;8.60;2.72;;;;;;;13.92;77.79;100281.47;5022288;28;20037;-77
2022/05/24 05:44:55;;;;;;;7.00;2.63;;;;;;;13.88;78.09;100270.25;5022320;28;20042;-78
2022/05/24 05:47:20;;;;;;;7.28;2.67;;;;;;;13.88;77.70;100264.22;5019470;28;20077;-76
2022/05/24 05:49:46;;;;;;;11.32;2.90;;;;;;;13.80;77.77;100277.09;5015866;28;20029;-76
2022/05/24 05:52:11;;;;;;;6.65;2.10;;;;;;;13.88;78.45;100285.75;5022472;28;20040;-77
2022/05/24 05:54:37;;;;;;;11.57;2.63;;;;;;;13.84;77.93;100291.78;5005682;28;20030;-77
2022/05/24 05:57:06;;;;;;;6.25;2.22;;;;;;;13.90;78.07;100301.28;5017741;28;20036;-77
2022/05/24 05:59:31;;;;;;;7.10;2.30;;;;;;;13.91;77.65;100311.63;5021561;28;20120;-77
2022/05/24 06:01:58;;;;;;;8.25;2.20;;;;;;;13.83;78.24;100315.00;5021699;28;20049;-82
2022/05/24 06:04:23;;;;;;;8.68;2.28;;;;;;;13.85;77.73;100319.34;5018065;28;20029;-82
2022/05/24 06:06:49;;;;;;;9.43;2.55;;;;;;;13.87;78.08;100325.38;5022946;28;20059;-84
2022/05/24 06:09:15;;;;;;;9.85;2.60;;;;;;;13.90;78.43;100333.16;5019142;28;20050;-82
2022/05/24 06:11:41;;;;;;;8.95;2.10;;;;;;;13.90;78.10;100329.72;5013118;28;20040;-81
2022/05/24 06:14:07;;;;;;;7.68;2.30;;;;;;;13.89;77.48;100328.84;5021220;28;20060;-81
2022/05/24 06:16:34;;;;;;;8.38;1.95;;;;;;;13.90;77.31;100333.16;5026610;28;20025;-80
2022/05/24 06:18:59;;;;;;;13.02;2.20;;;;;;;13.84;77.04;100338.28;5020125;28;20036;-80
2022/05/24 06:21:25;;;;;;;10.02;2.20;;;;;;;13.91;76.96;100334.03;5022523;28;20034;-80
2022/05/24 06:23:50;;;;;;;8.00;1.90;;;;;;;13.91;77.12;100341.78;5019927;28;20038;-80
2022/05/24 06:26:18;;;;;;;6.68;2.53;;;;;;;13.94;77.04;100337.47;5018661;28;20033;-79
2022/05/24 06:28:44;;;;;;;8.55;2.80;;;;;;;13.94;76.71;100334.88;5020554;28;20032;-80
2022/05/24 06:31:09;;;;;;;8.15;2.47;;;;;;;14.03;78.53;100336.69;5019620;28;20025;-80
2022/05/24 06:33:35;;;;;;;11.07;3.83;;;;;;;14.18;77.16;100341.06;5014573;28;20022;-80
2022/05/24 06:36:00;;;;;;;11.63;4.05;;;;;;;14.35;77.35;100342.00;5020535;28;20392;-80
2022/05/24 06:38:26;;;;;;;8.07;3.90;;;;;;;14.42;76.78;100335.13;5018804;28;20041;-80
2022/05/24 06:40:51;;;;;;;8.25;4.13;;;;;;;14.41;74.77;100331.69;5022832;28;20033;-79
2022/05/24 06:43:16;;;;;;;9.27;3.70;;;;;;;14.54;74.63;100339.53;5017045;28;20029;-80
2022/05/24 06:45:42;;;;;;;8.57;3.55;;;;;;;14.65;74.38;100353.38;5016785;28;20033;-80
2022/05/24 06:48:10;;;;;;;8.05;3.22;;;;;;;14.67;74.09;100351.63;5022897;28;20396;-80
2022/05/24 06:50:35;;;;;;;8.55;3.40;;;;;;;14.78;74.52;100360.31;5026071;28;20049;-79
2022/05/24 06:53:01;;;;;;;11.25;2.95;;;;;;;14.84;73.11;100355.13;5016489;28;20103;-80
2022/05/24 06:55:26;;;;;;;6.55;2.78;;;;;;;14.86;73.13;100371.53;5013293;28;20029;-80
2022/05/24 06:57:51;;;;;;;10.63;2.70;;;;;;;14.83;72.61;100378.44;5023377;28;20099;-80
2022/05/24 07:03:15;;;;;;;5.72;2.33;;;;;;;14.96;73.11;100390.56;5026867;28;20091;-80
2022/05/24 07:05:42;;;;;;;8.70;2.38;;;;;;;14.92;73.02;100392.25;5020229;28;20105;-78
2022/05/24 07:08:08;;;;;;;8.35;2.58;;;;;;;14.91;73.59;100393.13;5021536;28;20105;-79
2022/05/24 07:10:35;;;;;;;6.22;1.88;;;;;;;14.91;71.99;100392.25;5016522;28;20151;-78
2022/05/24 07:13:07;;;;;;;5.72;2.00;;;;;;;15.04;73.12;100404.38;5026458;28;20025;-78
2022/05/24 07:15:33;;;;;;;7.57;2.53;;;;;;;15.00;71.16;100402.66;5024337;28;20489;-78
2022/05/24 07:17:58;;;;;;;6.35;2.88;;;;;;;15.01;69.47;100405.25;5029323;28;20033;-78
2022/05/24 07:20:25;;;;;;;9.30;2.97;;;;;;;15.01;69.66;100404.38;5023276;28;20036;-78
2022/05/24 07:22:52;;;;;;;6.03;3.20;;;;;;;15.11;69.34;100400.09;5025264;28;20025;-78
2022/05/24 07:25:18;;;;;;;7.25;3.03;;;;;;;15.15;70.99;100414.75;5018748;28;20403;-78
2022/05/24 07:27:44;;;;;;;8.48;3.70;;;;;;;15.10;72.36;100412.16;5025045;28;20029;-78
2022/05/24 07:30:10;;;;;;;5.93;3.33;;;;;;;15.21;71.36;100409.59;5030299;28;20040;-77
2022/05/24 07:32:36;;;;;;;7.47;3.47;;;;;;;15.22;69.64;100407.00;5022889;28;20524;-78
2022/05/24 07:35:02;;;;;;;6.35;3.33;;;;;;;15.41;70.18;100412.22;5021854;28;20025;-79
2022/05/24 07:37:28;;;;;;;6.10;3.28;;;;;;;15.38;69.97;100394.94;5019177;28;20037;-78
2022/05/24 07:45:48;;;;;;;5.70;3.17;;;;;;;15.43;68.19;100424.31;5016828;28;20499;-78
2022/05/24 07:48:09;;;;;;;8.88;3.67;;;;;;;15.51;69.10;100426.91;5008620;28;20052;-77
2022/05/24 07:50:35;;;;;;;8.13;3.60;;;;;;;15.69;69.73;100420.91;5013430;28;20029;-79
2022/05/24 07:53:00;;;;;;;8.10;3.78;;;;;;;15.67;68.10;100427.84;5012215;28;20041;-77
2022/05/24 07:55:26;;;;;;;9.02;3.70;;;;;;;15.62;68.01;100427.81;5024138;28;20060;-77
2022/05/24 07:57:51;;;;;;;7.90;3.50;;;;;;;15.67;68.52;100425.25;5015859;28;20033;-77
2022/05/24 08:00:17;;;;;;;6.47;3.40;;;;;;;15.68;68.28;100429.56;5010719;28;20026;-77
2022/05/24 08:02:43;;;;;;;7.90;3.38;;;;;;;15.71;68.35;100417.47;5010968;28;20034;-77
2022/05/24 08:05:10;;;;;;;8.85;3.55;;;;;;;15.73;67.56;100433.03;5008364;28;20037;-77
2022/05/24 08:07:36;;;;;;;6.50;3.33;;;;;;;15.62;67.55;100424.34;5014289;28;20025;-78
2022/05/24 08:10:03;;;;;;;8.95;3.80;;;;;;;15.55;67.23;100428.66;5015520;28;20056;-77
2022/05/24 08:12:29;;;;;;;6.45;3.60;;;;;;;15.48;66.86;100432.97;5018106;28;20088;-77
2022/05/24 08:14:55;;;;;;;8.73;3.72;;;;;;;15.47;67.29;100438.13;5013433;28;20021;-77
2022/05/24 08:17:20;;;;;;;9.07;3.75;;;;;;;15.50;66.67;100439.00;5020387;28;20520;-77
2022/05/24 08:19:45;;;;;;;5.30;3.50;;;;;;;15.52;67.00;100436.41;5014699;28;20047;-78
2022/05/24 08:22:11;;;;;;;7.70;3.40;;;;;;;15.50;67.65;100448.50;5011978;28;20080;-78
2022/05/24 08:24:36;;;;;;;5.25;3.30;;;;;;;15.66;68.28;100446.84;5017439;28;20046;-77
2022/05/24 08:27:02;;;;;;;5.18;3.17;;;;;;;15.71;66.94;100445.09;5004931;28;20108;-77
2022/05/24 08:29:28;;;;;;;9.55;3.00;;;;;;;15.87;66.89;100446.84;5016215;28;20480;-78
2022/05/24 08:31:53;;;;;;;7.05;3.10;;;;;;;16.04;67.12;100454.59;5008669;28;20049;-78
2022/05/24 08:34:19;;;;;;;3.80;2.80;;;;;;;16.19;67.06;100456.31;5007569;28;20113;-79
2022/05/24 08:36:45;;;;;;;4.65;2.80;;;;;;;16.35;65.84;100471.00;5025839;28;20033;-78
2022/05/24 08:39:11;;;;;;;4.65;3.00;;;;;;;16.34;65.34;100474.47;5012721;28;20048;-79
2022/05/24 08:41:43;;;;;;;4.07;2.83;;;;;;;16.38;64.96;100471.00;5026810;28;20116;-79
2022/05/24 08:50:05;;;;;;;5.10;3.20;;;;;;;16.16;63.51;100487.47;5007254;28;20052;-78
2022/05/24 08:52:39;;;;;;;5.90;3.22;;;;;;;16.06;64.21;100489.19;5015470;28;20037;-77
2022/05/24 08:55:06;;;;;;;7.90;3.80;;;;;;;15.98;65.60;100511.66;5018356;28;20033;-78
2022/05/24 08:57:46;;;;;;;6.05;3.67;;;;;;;15.87;65.81;100501.28;5011421;28;20025;-78
2022/05/24 09:00:20;;;;;;;7.30;3.50;;;;;;;15.78;66.81;100514.25;5018085;28;20025;-81
2022/05/24 09:02:47;;;;;;;6.68;3.45;;;;;;;15.71;66.01;100510.78;5021316;28;20022;-79
2022/05/24 09:05:35;;;;;;;6.95;3.30;;;;;;;15.83;66.26;100515.09;5018904;28;20068;-79
2022/05/24 09:08:27;;;;;;;4.47;3.40;;;;;;;15.92;66.47;100522.91;5019958;28;20034;-78
2022/05/24 09:11:09;;;;;;;6.45;3.13;;;;;;;15.89;65.62;100528.06;5016491;28;20123;-79
2022/05/24 09:13:59;;;;;;;7.65;3.38;;;;;;;15.83;65.64;100522.88;5021977;28;20029;-78
2022/05/24 09:16:35;;;;;;;7.13;3.38;;;;;;;15.87;66.35;100532.41;5027999;28;20041;-76
2022/05/24 09:19:40;;;;;;;4.88;3.15;;;;;;;15.99;66.20;100535.00;5019195;28;20053;-79
2022/05/24 09:22:06;;;;;;;6.88;3.20;;;;;;;15.90;65.30;100529.81;4966022;28;20579;-78
2022/05/24 09:24:46;;;;;;;3.90;3.25;;;;;;;15.96;66.00;100540.19;4968502;28;20118;-77
2022/05/24 09:27:17;;;;;;;5.53;3.83;;;;;;;15.95;65.10;100543.63;4997028;28;20170;-78
2022/05/24 09:30:00;;;;;;;5.45;3.80;;;;;;;16.05;65.88;100553.16;5018140;28;20033;-77
2022/05/24 09:32:44;;;;;;;5.28;3.70;;;;;;;16.09;64.81;100546.25;5024225;28;20040;-77
2022/05/24 09:35:19;;;;;;;6.45;3.15;;;;;;;16.01;62.66;100558.31;5021987;28;20053;-78
2022/05/24 09:38:07;;;;;;;5.50;2.80;;;;;;;15.94;62.31;100556.59;5014344;28;20037;-78
2022/05/24 09:40:55;;;;;;;4.73;3.10;;;;;;;16.00;63.96;100565.25;5022417;28;20029;-78
2022/05/24 09:43:33;;;;;;;4.43;3.20;;;;;;;15.89;63.04;100579.91;5021061;28;20025;-78
2022/05/24 09:46:05;;;;;;;6.03;3.85;;;;;;;15.87;64.27;100575.59;5022696;28;20030;-77
2022/05/24 09:48:34;;;;;;;4.70;3.90;;;;;;;15.95;64.07;100579.06;5024379;28;20129;-78
2022/05/24 09:51:03;;;;;;;4.78;4.05;;;;;;;16.12;64.77;100573.91;5018665;28;20040;-77
2022/05/24 09:53:30;;;;;;;5.43;4.78;;;;;;;16.18;64.76;100572.19;5016009;28;20091;-76
2022/05/24 09:56:01;;;;;;;6.00;4.15;;;;;;;16.28;65.55;100576.53;5020282;28;20052;-77
2022/05/24 09:58:39;;;;;;;4.88;2.97;;;;;;;16.32;61.64;100590.38;5023876;28;20045;-78
2022/05/24 10:01:10;;;;;;;6.47;3.22;;;;;;;16.43;62.41;100583.41;5018257;28;20158;-77
2022/05/24 10:03:45;;;;;;;5.50;3.20;;;;;;;16.44;61.80;100589.47;5025536;28;20029;-78
2022/05/24 10:06:12;;;;;;;4.22;2.60;;;;;;;16.40;61.03;100580.84;5023523;28;20041;-77
2022/05/24 10:08:45;;;;;;;4.25;2.40;;;;;;;16.35;60.90;100588.63;5020692;28;20053;-77
2022/05/24 10:11:39;;;;;;;5.13;2.20;;;;;;;16.30;61.55;100584.28;5020967;28;20030;-76
2022/05/24 10:14:30;;;;;;;3.45;2.17;;;;;;;16.22;61.75;100586.91;5020496;28;20038;-80
2022/05/24 10:17:13;;;;;;;3.10;2.15;;;;;;;16.10;62.73;100597.25;5021699;28;20068;-83
2022/05/24 10:20:40;;;;;;;2.88;2.00;;;;;;;16.14;62.92;100608.47;5025896;28;20028;-78
2022/05/24 10:23:33;;;;;;;2.38;1.30;;;;;;;16.07;61.08;100608.47;4925444;29;20054;-77
2022/05/24 10:26:11;;;;;;;3.28;1.45;;;;;;;16.04;60.67;100605.03;4927758;28;20036;-77
2022/05/24 10:29:11;;;;;;;1.20;1.00;;;;;;;16.13;62.12;100614.53;4993003;28;20099;-77
2022/05/24 10:32:02;;;;;;;3.08;1.40;;;;;;;16.12;62.03;100618.88;5017353;28;20049;-77
2022/05/24 10:38:18;;;;;;;1.75;1.20;;;;;;;16.22;63.14;100631.00;5022385;28;20094;-77
2022/05/24 10:40:54;;;;;;;2.72;1.50;;;;;;;16.09;62.67;100630.13;5026920;28;20100;-77
2022/05/24 10:43:41;;;;;;;6.00;1.60;;;;;;;16.04;62.88;100631.84;5018653;28;20037;-77
2022/05/24 10:46:14;;;;;;;3.22;1.38;;;;;;;16.17;63.22;100643.09;5020987;28;20034;-77
2022/05/24 10:48:48;;;;;;;2.13;1.50;;;;;;;16.22;63.09;100636.19;5021858;28;20029;-77
2022/05/24 10:51:29;;;;;;;1.80;1.20;;;;;;;16.36;63.79;100636.19;5021258;28;20025;-78
2022/05/24 10:54:00;;;;;;;1.98;1.10;;;;;;;16.34;60.94;100640.53;5021801;28;20030;-78
2022/05/24 10:56:34;;;;;;;2.38;1.00;;;;;;;16.35;61.36;100639.66;5015671;28;20484;-77
2022/05/24 10:59:23;;;;;;;3.25;1.27;;;;;;;16.51;61.85;100633.63;5018782;28;20030;-77
2022/05/24 11:01:56;;;;;;;2.40;1.20;;;;;;;16.72;61.21;100631.91;5021023;28;20017;-77
2022/05/24 11:04:33;;;;;;;1.60;1.10;;;;;;;16.92;60.45;100622.34;5016763;28;20680;-77
2022/05/24 11:07:06;;;;;;;3.30;1.20;;;;;;;17.20;60.71;100628.34;5017018;28;20056;-77
2022/05/24 11:09:35;;;;;;;2.90;1.17;;;;;;;17.33;59.48;100622.25;5021825;28;20053;-76
2022/05/24 11:12:06;;;;;;;;;;;;;;;17.53;60.87;100618.69;5023021;28;20052;-76
2022/05/24 11:14:47;;;;;;;1.98;1.35;;;;;;;17.63;59.95;100629.06;5016747;28;19913;-76
2022/05/24 11:17:14;;;;;;;5.75;1.67;;;;;;;17.60;57.32;100620.44;5013317;28;20460;-77
2022/05/24 11:19:47;;;;;;;2.05;1.33;;;;;;;17.64;58.37;100622.97;5011406;28;20038;-78
2022/05/24 11:22:15;;;;;;;4.70;1.40;;;;;;;17.68;58.75;100629.91;5024926;28;20152;-77
2022/05/24 11:25:01;;;;;;;5.47;1.80;;;;;;;17.66;56.84;100626.47;5018994;28;20030;-76
2022/05/24 11:27:41;;;;;;;5.25;2.10;;;;;;;17.66;60.05;100642.06;5005647;28;20433;-77
2022/05/24 11:30:17;;;;;;;10.77;2.50;;;;;;;17.50;64.79;100653.38;5018281;28;20113;-80
2022/05/24 11:32:47;;;;;;;4.40;1.83;;;;;;;17.33;63.90;100647.38;5024205;28;20117;-79
2022/05/24 11:35:19;;;;;;;2.60;1.52;;;;;;;17.22;66.28;100646.53;5026354;28;20025;-79
2022/05/24 11:37:55;;;;;;;3.92;1.67;;;;;;;17.10;67.02;100645.69;5026781;28;20088;-79
2022/05/24 11:40:39;;;;;;;3.97;1.58;;;;;;;17.23;67.11;100648.25;5028036;28;20723;-80
2022/05/24 11:43:08;;;;;;;2.75;1.70;;;;;;;17.27;67.60;100652.59;5019483;28;20029;-79
2022/05/24 11:45:34;;;;;;;2.15;1.60;;;;;;;17.36;67.84;100652.56;5028383;28;20518;-80
2022/05/24 11:48:17;;;;;;;2.60;1.88;;;;;;;17.45;66.94;100638.66;5020400;28;20033;-80
2022/05/24 11:50:50;;;;;;;2.67;1.65;;;;;;;17.53;66.76;100649.88;5020959;28;20156;-78
2022/05/24 11:53:34;;;;;;;4.03;1.55;;;;;;;17.52;64.41;100649.03;5025072;28;20646;-79
2022/05/24 11:56:01;;;;;;;3.88;1.42;;;;;;;17.61;66.23;100650.75;5023120;28;20025;-79
2022/05/24 11:58:29;;;;;;;3.80;1.70;;;;;;;17.73;65.54;100650.72;5028752;28;20079;-79
2022/05/24 12:01:00;;;;;;;3.57;1.60;;;;;;;17.75;64.72;100656.78;5021561;28;20592;-79
2022/05/24 12:09:15;;;;;;;2.00;1.30;;;;;;;17.67;59.32;100666.31;5022371;28;20529;-81
2022/05/24 12:11:41;;;;;;;1.70;1.15;;;;;;;17.55;60.67;100674.16;5030466;28;20025;-78
2022/05/24 12:14:12;;;;;;;2.58;1.10;;;;;;;17.56;59.83;100676.75;5022505;28;20036;-78
2022/05/24 12:17:06;;;;;;;2.25;0.93;;;;;;;17.54;60.29;100682.84;5025064;28;20033;-78